Time;durP1;ratioP1;P1;durP2;ratioP2;P2;SDS_P1;SDS_P2;PMS_P1;PMS_P2;Temp;Humidity;BMP_temperature;BMP_pressure;BME280_temperature;BME280_humidity;BME280_pressure;Samples;Min_cycle;Max_cycle;Signal;HPM_P1;HPM_P2
2022/01/20 00:00:14;;;;;;;24.80;5.07;;;;;;;1.74;100.00;102446.22;5119177;27;20118;-64
2022/01/20 00:02:45;;;;;;;39.53;5.67;;;;;;;1.73;100.00;102460.63;5122105;27;20063;-64
2022/01/20 00:05:49;;;;;;;;;;;;;;;1.73;100.00;102449.50;5116207;27;20023;-64
2022/01/20 00:26:55;;;;;;;22.17;4.60;;;;;;;1.64;100.00;102440.22;5034797;28;20030;-63
2022/01/20 00:29:28;;;;;;;22.43;5.43;;;;;;;1.65;100.00;102451.34;5024652;28;20592;-65
2022/01/20 00:32:10;;;;;;;21.77;5.53;;;;;;;1.65;100.00;102459.94;5021835;28;20029;-64
2022/01/20 00:37:21;;;;;;;27.83;4.90;;;;;;;1.66;100.00;102484.72;5039070;28;20068;-64
2022/01/20 00:39:47;;;;;;;27.77;6.13;;;;;;;1.67;100.00;102477.97;5019282;28;20026;-64
2022/01/20 00:42:13;;;;;;;26.97;4.73;;;;;;;1.68;100.00;102478.09;5035631;28;20487;-63
2022/01/20 00:44:38;;;;;;;29.23;6.40;;;;;;;1.68;100.00;102465.31;5037342;28;20452;-64
2022/01/20 00:47:04;;;;;;;23.77;4.77;;;;;;;1.68;100.00;102467.88;5033144;28;20409;-64
2022/01/20 00:49:29;;;;;;;26.57;4.63;;;;;;;1.67;100.00;102460.94;5035143;28;20025;-64
2022/01/20 00:51:55;;;;;;;22.17;4.60;;;;;;;1.66;100.00;102463.38;5039673;28;20033;-63
2022/01/20 00:54:20;;;;;;;18.80;4.43;;;;;;;1.63;100.00;102456.31;5025498;28;20556;-64
2022/01/20 00:56:46;;;;;;;21.60;4.60;;;;;;;1.61;100.00;102455.28;5045071;28;20037;-63
2022/01/20 00:59:12;;;;;;;25.20;4.17;;;;;;;1.59;100.00;102455.88;5018843;28;20037;-64
2022/01/20 01:01:37;;;;;;;23.83;5.40;;;;;;;1.59;100.00;102464.44;5036016;28;20472;-64
2022/01/20 01:04:03;;;;;;;25.43;4.23;;;;;;;1.59;100.00;102477.22;5082088;27;20035;-64
2022/01/20 01:06:58;;;;;;;24.07;5.60;;;;;;;1.60;100.00;102484.13;5120694;27;20015;-63
2022/01/20 01:09:23;;;;;;;28.20;5.00;;;;;;;1.61;100.00;102470.63;5109445;28;20032;-64
2022/01/20 01:11:51;;;;;;;23.37;4.60;;;;;;;1.62;100.00;102476.63;5106148;27;20151;-64
2022/01/20 01:14:18;;;;;;;21.20;4.23;;;;;;;1.62;100.00;102485.19;5096043;28;20044;-64
2022/01/20 01:24:33;;;;;;;22.50;4.17;;;;;;;1.57;100.00;102483.84;5092242;28;20024;-64
2022/01/20 01:26:58;;;;;;;21.20;3.50;;;;;;;1.54;100.00;102479.34;5095508;28;20024;-63
2022/01/20 01:32:12;;;;;;;17.90;3.60;;;;;;;1.50;100.00;102492.59;5006690;28;20034;-65
2022/01/20 01:34:41;;;;;;;16.77;3.50;;;;;;;1.50;100.00;102491.69;5006438;28;20034;-63
2022/01/20 01:37:23;;;;;;;17.97;4.90;;;;;;;1.50;100.00;102481.44;5005806;28;20123;-63
2022/01/20 01:39:49;;;;;;;21.67;3.77;;;;;;;1.49;100.00;102480.56;5009962;28;20052;-64
2022/01/20 01:42:14;;;;;;;18.70;3.90;;;;;;;1.50;100.00;102486.56;5008108;28;20030;-64
2022/01/20 01:44:39;;;;;;;17.87;4.43;;;;;;;1.52;100.00;102491.09;5013035;28;20042;-64
2022/01/20 01:47:05;;;;;;;20.90;3.57;;;;;;;1.50;100.00;102491.69;5006728;28;20061;-64
2022/01/20 01:49:30;;;;;;;17.17;2.67;;;;;;;1.51;100.00;102483.28;5006333;28;20092;-64
2022/01/20 01:51:55;;;;;;;20.30;3.90;;;;;;;1.55;100.00;102480.22;5006462;28;20065;-64
2022/01/20 01:54:21;;;;;;;20.43;3.03;;;;;;;1.57;100.00;102483.84;4999652;28;20596;-64
2022/01/20 01:56:48;;;;;;;15.93;3.30;;;;;;;1.58;100.00;102485.66;5006286;28;20100;-64
2022/01/20 01:59:14;;;;;;;15.13;3.40;;;;;;;1.58;100.00;102490.78;4989965;28;20021;-65
2022/01/20 02:01:41;;;;;;;19.23;3.33;;;;;;;1.57;100.00;102494.06;4988837;28;20026;-62
2022/01/20 02:04:15;;;;;;;18.47;3.93;;;;;;;1.59;100.00;102492.56;4983950;28;20030;-63
2022/01/20 02:07:20;;;;;;;18.17;3.27;;;;;;;1.59;100.00;102482.34;5002493;28;20165;-63
2022/01/20 02:20:41;;;;;;;20.77;3.57;;;;;;;1.64;100.00;102488.78;5065532;28;20501;-63
2022/01/20 02:23:06;;;;;;;16.70;3.10;;;;;;;1.65;100.00;102490.59;5060087;28;20033;-63
2022/01/20 02:25:35;;;;;;;14.07;3.03;;;;;;;1.68;100.00;102503.66;5063251;28;20046;-63
2022/01/20 02:28:04;;;;;;;15.47;3.27;;;;;;;1.71;100.00;102502.16;5049383;28;20060;-63
2022/01/20 02:30:30;;;;;;;16.40;3.43;;;;;;;1.74;100.00;102505.00;5065287;28;20044;-63
2022/01/20 02:33:01;;;;;;;19.27;3.70;;;;;;;1.76;100.00;102501.81;5065413;28;20047;-63
2022/01/20 02:35:30;;;;;;;18.60;3.30;;;;;;;1.78;100.00;102496.88;5065447;28;20119;-63
2022/01/20 02:38:00;;;;;;;16.60;3.07;;;;;;;1.80;100.00;102485.13;5065606;28;20047;-63
2022/01/20 02:45:51;;;;;;;20.27;2.57;;;;;;;1.81;100.00;102469.03;5053851;28;20107;-63
2022/01/20 02:48:16;;;;;;;13.07;2.07;;;;;;;1.84;100.00;102481.19;5052611;28;20123;-63
2022/01/20 02:50:42;;;;;;;11.23;2.50;;;;;;;1.85;100.00;102476.25;5069197;28;20546;-63
2022/01/20 02:53:07;;;;;;;15.37;2.60;;;;;;;1.89;100.00;102482.56;5062792;28;20028;-62
2022/01/20 02:55:33;;;;;;;13.30;2.10;;;;;;;1.90;100.00;102469.91;5068724;28;20111;-63
2022/01/20 02:57:58;;;;;;;11.73;2.13;;;;;;;1.91;100.00;102483.56;5072697;28;20383;-63
2022/01/20 03:00:24;;;;;;;10.50;2.27;;;;;;;1.93;100.00;102484.63;5108640;28;20359;-63
2022/01/20 03:02:49;;;;;;;11.87;2.37;;;;;;;1.92;100.00;102478.59;5092273;28;20055;-63
2022/01/20 03:05:15;;;;;;;14.83;3.50;;;;;;;1.93;100.00;102464.16;5095061;28;20064;-63
2022/01/20 03:07:40;;;;;;;13.13;2.87;;;;;;;1.95;100.00;102457.53;5107336;28;20055;-63
2022/01/20 03:10:07;;;;;;;13.57;2.40;;;;;;;1.96;100.00;102477.22;5105905;28;20120;-63
2022/01/20 03:12:33;;;;;;;10.03;2.30;;;;;;;1.98;100.00;102465.50;5103277;28;20024;-63
2022/01/20 03:14:59;;;;;;;12.93;3.03;;;;;;;1.98;100.00;102472.28;5126951;27;20142;-63
2022/01/20 03:17:24;;;;;;;7.93;2.40;;;;;;;1.97;100.00;102475.56;5118254;27;20031;-64
2022/01/20 03:19:50;;;;;;;13.50;2.50;;;;;;;1.97;100.00;102470.47;5115327;27;20020;-64
2022/01/20 03:22:15;;;;;;;8.77;2.17;;;;;;;1.95;100.00;102467.78;5128140;27;20027;-64
2022/01/20 03:24:41;;;;;;;9.57;2.37;;;;;;;1.92;100.00;102458.13;5120907;27;20072;-64
2022/01/20 03:27:06;;;;;;;15.03;2.23;;;;;;;1.92;100.00;102449.59;5126400;27;20031;-64
2022/01/20 03:29:32;;;;;;;12.60;2.03;;;;;;;1.93;100.00;102448.81;5122474;27;20475;-64
2022/01/20 03:31:57;;;;;;;12.10;2.83;;;;;;;1.92;100.00;102450.47;5120160;27;20024;-64
2022/01/20 03:34:23;;;;;;;9.73;2.40;;;;;;;1.91;100.00;102456.34;5111710;28;20499;-64
2022/01/20 03:36:49;;;;;;;13.20;2.60;;;;;;;1.90;100.00;102456.22;5119698;27;20023;-64
2022/01/20 03:39:15;;;;;;;17.77;2.73;;;;;;;1.87;100.00;102449.13;5131806;27;20164;-64
2022/01/20 03:41:40;;;;;;;13.80;2.63;;;;;;;1.87;100.00;102450.81;5114208;27;20110;-64
2022/01/20 03:44:05;;;;;;;14.53;2.20;;;;;;;1.86;100.00;102455.03;5112209;27;20035;-64
2022/01/20 03:46:32;;;;;;;12.90;2.97;;;;;;;1.86;100.00;102457.59;5119342;27;20026;-64
2022/01/20 03:49:08;;;;;;;12.87;3.40;;;;;;;1.87;100.00;102456.81;5111267;28;20027;-64
2022/01/20 03:51:33;;;;;;;14.43;3.53;;;;;;;1.88;100.00;102455.16;5119685;27;20033;-64
2022/01/20 03:53:59;;;;;;;12.07;2.43;;;;;;;1.88;100.00;102457.72;5112479;27;20402;-65
2022/01/20 03:56:24;;;;;;;16.30;2.90;;;;;;;1.88;100.00;102456.06;5123593;27;20024;-64
2022/01/20 03:58:50;;;;;;;19.90;2.93;;;;;;;1.87;100.00;102451.69;5131042;27;20015;-64
2022/01/20 04:01:17;;;;;;;17.43;3.30;;;;;;;1.86;100.00;102452.47;5115279;27;20167;-64
2022/01/20 04:03:43;;;;;;;16.60;2.50;;;;;;;1.85;100.00;102455.78;5119399;27;20418;-63
2022/01/20 04:06:08;;;;;;;16.43;2.50;;;;;;;1.85;100.00;102453.25;5116627;27;20034;-64
2022/01/20 04:08:37;;;;;;;17.90;2.90;;;;;;;1.86;100.00;102457.59;5111303;27;20058;-64
2022/01/20 04:11:09;;;;;;;13.07;2.60;;;;;;;1.83;100.00;102457.31;5119345;27;20027;-64
2022/01/20 04:13:34;;;;;;;;;;;;;;;1.82;100.00;102475.06;5119320;27;20039;-64
2022/01/20 04:16:03;;;;;;;14.67;2.40;;;;;;;1.79;100.00;102481.69;5124191;27;19914;-64
2022/01/20 04:18:29;;;;;;;14.97;3.03;;;;;;;1.75;100.00;102474.47;5114125;27;20028;-65
2022/01/20 04:20:55;;;;;;;11.60;2.70;;;;;;;1.76;100.00;102470.25;5118185;27;20461;-64
2022/01/20 04:23:21;;;;;;;14.13;2.83;;;;;;;1.76;100.00;102475.38;5117756;27;20099;-64
2022/01/20 04:25:47;;;;;;;15.23;3.13;;;;;;;1.76;100.00;102468.59;5119086;27;20036;-64
2022/01/20 04:28:12;;;;;;;17.97;2.70;;;;;;;1.78;100.00;102495.19;5118830;27;20055;-64
2022/01/20 04:30:38;;;;;;;18.60;3.27;;;;;;;1.78;100.00;102502.00;5126989;27;20137;-64
2022/01/20 04:33:03;;;;;;;13.43;2.77;;;;;;;1.79;100.00;102514.00;5109340;28;20058;-64
2022/01/20 04:35:28;;;;;;;14.77;2.80;;;;;;;1.83;100.00;102498.22;5118127;27;20113;-64
2022/01/20 04:37:56;;;;;;;18.90;2.47;;;;;;;1.87;100.00;102492.59;5118681;27;20023;-64
2022/01/20 04:40:22;;;;;;;17.23;2.60;;;;;;;1.90;100.00;102503.16;5091105;28;20047;-64
2022/01/20 04:42:49;;;;;;;14.80;3.00;;;;;;;1.91;100.00;102492.16;5110440;28;20627;-64
2022/01/20 04:45:22;;;;;;;13.87;2.90;;;;;;;1.93;100.00;102489.72;5117361;27;20022;-64
2022/01/20 04:58:43;;;;;;;14.43;2.43;;;;;;;1.90;100.00;102500.59;5119127;27;20084;-64
2022/01/20 05:01:10;;;;;;;15.10;2.93;;;;;;;1.88;100.00;102507.22;5114238;27;20694;-64
2022/01/20 05:03:35;;;;;;;14.73;2.57;;;;;;;1.89;100.00;102515.78;5121797;27;20023;-64
2022/01/20 05:06:00;;;;;;;15.10;2.27;;;;;;;1.89;100.00;102521.78;5120779;27;20030;-64
2022/01/20 05:08:29;;;;;;;10.77;2.20;;;;;;;1.90;100.00;102530.38;5099406;27;20031;-64
2022/01/20 05:10:54;;;;;;;13.17;2.13;;;;;;;1.92;100.00;102539.09;5110096;27;20031;-64
2022/01/20 05:13:32;;;;;;;13.73;2.47;;;;;;;1.95;100.00;102541.03;5125242;27;20103;-64
2022/01/20 05:15:58;;;;;;;12.73;2.47;;;;;;;1.97;100.00;102536.97;5127422;27;20106;-63
2022/01/20 05:18:24;;;;;;;14.17;2.33;;;;;;;1.97;100.00;102537.88;5113185;27;20510;-64
2022/01/20 05:20:49;;;;;;;15.33;2.07;;;;;;;1.98;100.00;102547.31;5091071;28;20114;-63
2022/01/20 05:23:14;;;;;;;15.43;2.33;;;;;;;1.99;100.00;102554.25;5118021;27;20023;-63
2022/01/20 05:25:40;;;;;;;10.97;2.10;;;;;;;2.00;100.00;102553.50;5128323;27;20098;-64
2022/01/20 05:28:05;;;;;;;15.43;2.40;;;;;;;2.00;100.00;102557.69;5120800;27;20030;-63
2022/01/20 05:30:31;;;;;;;12.17;2.27;;;;;;;2.01;100.00;102559.53;5112730;27;20523;-63
2022/01/20 05:32:56;;;;;;;12.00;2.37;;;;;;;2.01;100.00;102546.72;5126015;27;20108;-63
2022/01/20 05:35:21;;;;;;;11.40;1.87;;;;;;;2.02;100.00;102559.66;5109700;28;20020;-62
2022/01/20 05:37:47;;;;;;;17.03;3.20;;;;;;;2.02;100.00;102551.06;5117710;27;20450;-63
2022/01/20 05:40:12;;;;;;;14.67;2.43;;;;;;;2.01;100.00;102557.88;5115673;28;20064;-63
2022/01/20 05:42:39;;;;;;;12.33;2.67;;;;;;;2.03;100.00;102563.13;5119728;28;20047;-63
2022/01/20 05:45:06;;;;;;;12.60;2.90;;;;;;;2.03;100.00;102573.34;5116170;28;20486;-63
2022/01/20 05:47:32;;;;;;;14.90;2.43;;;;;;;2.04;100.00;102567.47;5091346;28;20020;-64
2022/01/20 05:49:58;;;;;;;10.77;2.13;;;;;;;2.05;100.00;102574.41;5102226;28;20072;-63
2022/01/20 05:52:23;;;;;;;14.70;2.87;;;;;;;2.06;100.00;102583.88;5121223;28;20019;-63
2022/01/20 05:54:49;;;;;;;18.37;3.40;;;;;;;2.05;100.00;102587.19;5117970;28;20015;-63
2022/01/20 05:57:15;;;;;;;12.57;2.90;;;;;;;2.06;100.00;102603.41;5101953;28;20027;-63
2022/01/20 05:59:40;;;;;;;12.83;2.83;;;;;;;2.07;100.00;102616.34;5109034;28;20475;-63
2022/01/20 06:02:13;;;;;;;17.07;2.67;;;;;;;2.07;100.00;102631.69;5122681;28;20023;-63
2022/01/20 06:04:39;;;;;;;12.37;2.90;;;;;;;2.05;100.00;102607.66;5119461;28;20527;-63
2022/01/20 06:07:04;;;;;;;15.70;3.40;;;;;;;2.04;100.00;102600.72;5122459;28;20023;-63
2022/01/20 06:09:29;;;;;;;14.50;3.13;;;;;;;2.06;100.00;102609.44;5118704;28;20024;-63
2022/01/20 06:11:55;;;;;;;11.43;2.93;;;;;;;2.03;100.00;102607.47;5121197;28;20097;-63
2022/01/20 06:14:20;;;;;;;15.97;2.43;;;;;;;2.04;100.00;102616.06;5120506;28;20594;-63
2022/01/20 06:16:45;;;;;;;10.60;2.20;;;;;;;2.04;100.00;102616.06;5119665;27;20436;-63
2022/01/20 06:19:11;;;;;;;9.90;2.03;;;;;;;2.02;100.00;102625.25;5119483;27;20027;-63
2022/01/20 06:21:37;;;;;;;11.27;3.03;;;;;;;2.03;100.00;102624.50;5132791;27;20432;-63
2022/01/20 06:24:03;;;;;;;15.83;2.87;;;;;;;2.02;100.00;102628.72;5121309;27;20016;-64
2022/01/20 06:26:28;;;;;;;13.40;2.40;;;;;;;2.02;100.00;102640.59;5121378;27;20383;-64
2022/01/20 06:28:54;;;;;;;13.27;2.53;;;;;;;2.02;100.00;102638.94;5121116;27;20020;-63
2022/01/20 06:31:19;;;;;;;13.27;2.10;;;;;;;2.02;100.00;102638.03;5113278;27;20502;-64
2022/01/20 06:33:46;;;;;;;16.60;2.93;;;;;;;2.01;100.00;102641.34;5123824;27;20395;-64
2022/01/20 06:36:12;;;;;;;11.37;2.60;;;;;;;2.00;100.00;102639.53;5121433;27;20322;-64
2022/01/20 06:38:37;;;;;;;13.03;3.30;;;;;;;2.01;100.00;102637.16;5113798;27;20055;-63
2022/01/20 06:41:02;;;;;;;17.20;3.23;;;;;;;1.99;100.00;102643.78;5124730;27;20119;-63
2022/01/20 06:43:28;;;;;;;18.77;3.47;;;;;;;1.98;100.00;102653.88;5124951;27;20474;-64
2022/01/20 06:45:53;;;;;;;14.30;2.97;;;;;;;1.99;100.00;102650.53;5120644;27;20047;-63
2022/01/20 06:48:19;;;;;;;17.60;3.50;;;;;;;1.98;100.00;102653.88;5127860;27;20096;-63
2022/01/20 06:50:44;;;;;;;15.67;2.83;;;;;;;1.97;100.00;102655.50;5110622;27;20031;-64
2022/01/20 06:53:09;;;;;;;13.20;2.97;;;;;;;1.96;100.00;102666.47;5109438;28;20107;-64
2022/01/20 06:55:35;;;;;;;18.50;2.77;;;;;;;1.96;100.00;102665.59;5109655;27;20452;-64
2022/01/20 06:58:00;;;;;;;21.03;3.50;;;;;;;1.95;100.00;102671.44;5118234;27;20076;-62
2022/01/20 07:00:26;;;;;;;17.43;3.23;;;;;;;1.97;100.00;102680.16;5124202;27;20473;-63
2022/01/20 07:02:52;;;;;;;14.53;2.70;;;;;;;1.96;100.00;102696.28;5124040;27;20059;-64
2022/01/20 07:05:19;;;;;;;16.47;3.07;;;;;;;1.95;100.00;102692.81;5120586;27;20051;-63
2022/01/20 07:07:45;;;;;;;13.03;2.83;;;;;;;1.93;100.00;102701.97;5111158;27;20541;-63
2022/01/20 07:10:12;;;;;;;19.07;3.30;;;;;;;1.92;100.00;102707.88;5106124;27;20111;-64
2022/01/20 07:12:39;;;;;;;22.50;3.73;;;;;;;1.90;100.00;102694.03;5097083;27;20019;-63
2022/01/20 07:15:06;;;;;;;18.47;3.33;;;;;;;1.90;100.00;102694.94;5096494;28;20123;-63
2022/01/20 07:17:31;;;;;;;19.57;4.07;;;;;;;1.89;100.00;102698.22;5094441;28;20023;-64
2022/01/20 07:19:56;;;;;;;17.67;3.30;;;;;;;1.87;100.00;102699.72;5094791;28;20031;-64
2022/01/20 07:22:22;;;;;;;11.87;2.07;;;;;;;1.85;100.00;102698.69;5097605;28;20028;-64
2022/01/20 07:24:47;;;;;;;14.33;3.17;;;;;;;1.83;100.00;102702.75;5086047;28;20071;-64
2022/01/20 07:27:14;;;;;;;17.40;2.83;;;;;;;1.82;100.00;102705.16;5086039;28;20114;-63
2022/01/20 07:29:39;;;;;;;14.53;2.60;;;;;;;1.82;100.00;102716.28;5083833;28;20016;-64
2022/01/20 07:32:06;;;;;;;11.60;2.37;;;;;;;1.82;100.00;102711.16;5091001;28;20127;-64
2022/01/20 07:34:33;;;;;;;17.93;3.27;;;;;;;1.82;100.00;102715.41;5084517;28;20423;-64
2022/01/20 07:36:59;;;;;;;16.43;3.23;;;;;;;1.84;100.00;102725.00;5081139;28;20030;-64
2022/01/20 07:39:24;;;;;;;16.57;2.57;;;;;;;1.83;100.00;102728.34;5090995;28;20020;-63
2022/01/20 07:41:49;;;;;;;15.23;2.93;;;;;;;1.82;100.00;102730.75;5098907;28;20528;-63
2022/01/20 07:44:17;;;;;;;16.90;3.10;;;;;;;1.80;100.00;102735.66;5099007;28;20012;-62
2022/01/20 07:46:46;;;;;;;17.90;2.93;;;;;;;1.79;100.00;102739.00;5065529;28;20102;-64
2022/01/20 07:49:12;;;;;;;16.83;2.73;;;;;;;1.79;100.00;102739.00;5083539;28;20042;-63
2022/01/20 07:51:37;;;;;;;13.43;2.80;;;;;;;1.78;100.00;102744.88;5066958;28;20110;-64
2022/01/20 07:54:03;;;;;;;16.90;3.53;;;;;;;1.77;100.00;102746.53;5084153;28;20020;-64
2022/01/20 07:56:28;;;;;;;13.37;2.60;;;;;;;1.75;100.00;102748.00;5084315;28;20013;-63
2022/01/20 07:58:54;;;;;;;18.57;3.33;;;;;;;1.75;100.00;102749.66;5084325;28;20436;-64
2022/01/20 08:01:22;;;;;;;20.73;3.20;;;;;;;1.74;100.00;102748.78;5083771;28;20476;-64
2022/01/20 08:03:47;;;;;;;16.97;3.20;;;;;;;1.75;100.00;102750.56;5069080;28;20012;-63
2022/01/20 08:06:12;;;;;;;12.90;3.17;;;;;;;1.77;100.00;102753.28;5082402;28;20024;-63
2022/01/20 08:08:38;;;;;;;13.47;3.17;;;;;;;1.75;100.00;102750.56;5083871;28;20044;-64
2022/01/20 08:11:03;;;;;;;14.57;3.10;;;;;;;1.74;100.00;102758.09;5089900;28;20471;-63
2022/01/20 08:13:29;;;;;;;15.87;3.57;;;;;;;1.75;100.00;102771.03;5092025;27;20503;-63
2022/01/20 08:15:54;;;;;;;14.30;3.10;;;;;;;1.75;100.00;102771.03;5106161;27;20027;-64
2022/01/20 08:18:20;;;;;;;12.63;3.03;;;;;;;1.77;100.00;102771.19;5108529;28;20073;-63
2022/01/20 08:20:45;;;;;;;18.07;2.97;;;;;;;1.79;100.00;102778.25;5119439;27;20068;-64
2022/01/20 08:23:10;;;;;;;14.67;2.90;;;;;;;1.80;100.00;102781.69;5102870;28;20039;-64
2022/01/20 08:25:36;;;;;;;11.23;2.50;;;;;;;1.80;100.00;102786.81;5118995;27;20016;-64
2022/01/20 08:28:01;;;;;;;15.40;3.83;;;;;;;1.81;100.00;102791.19;5117133;27;20020;-64
2022/01/20 08:30:27;;;;;;;12.73;2.67;;;;;;;1.80;100.00;102790.28;5109178;27;20107;-64
2022/01/20 08:32:53;;;;;;;10.03;2.43;;;;;;;1.81;100.00;102791.19;5104082;27;20042;-64
2022/01/20 08:35:20;;;;;;;15.10;3.00;;;;;;;1.82;100.00;102798.09;5111866;27;20027;-63
2022/01/20 08:37:46;;;;;;;15.07;3.00;;;;;;;1.83;100.00;102789.69;5127145;27;20034;-64
2022/01/20 08:40:14;;;;;;;15.80;2.57;;;;;;;1.84;100.00;102798.25;5106580;28;20020;-63
2022/01/20 08:42:42;;;;;;;15.20;2.87;;;;;;;1.84;100.00;102796.59;5114423;27;20110;-64
2022/01/20 08:45:11;;;;;;;15.00;3.13;;;;;;;1.85;100.00;102801.00;5106090;27;20309;-64
2022/01/20 08:47:36;;;;;;;11.07;2.90;;;;;;;1.86;100.00;102813.00;5128780;27;20367;-64
2022/01/20 08:50:03;;;;;;;16.70;2.83;;;;;;;1.87;100.00;102817.34;5118631;27;20019;-64
2022/01/20 08:52:29;;;;;;;14.43;3.00;;;;;;;1.88;100.00;102813.16;5106637;28;20098;-64
2022/01/20 08:54:56;;;;;;;11.43;2.47;;;;;;;1.89;100.00;102820.09;5108728;28;20027;-64
2022/01/20 08:57:22;;;;;;;10.90;2.73;;;;;;;1.90;100.00;102830.47;5105570;28;20527;-64
2022/01/20 08:59:47;;;;;;;12.73;3.20;;;;;;;1.91;100.00;102823.69;5107343;28;20158;-64
2022/01/20 09:02:13;;;;;;;10.77;2.47;;;;;;;1.91;100.00;102822.03;5109282;28;20032;-64
2022/01/20 09:04:38;;;;;;;15.10;3.30;;;;;;;1.95;100.00;102832.56;5109658;28;20024;-64
2022/01/20 09:07:04;;;;;;;11.20;2.50;;;;;;;1.96;100.00;102831.81;5109861;28;20039;-64
2022/01/20 09:09:29;;;;;;;8.60;2.13;;;;;;;1.98;100.00;102840.56;5103287;28;20105;-64
2022/01/20 09:17:16;;;;;;;11.07;2.40;;;;;;;2.02;100.00;102851.25;5086319;28;20110;-64
2022/01/20 09:19:41;;;;;;;11.30;2.87;;;;;;;2.04;100.00;102859.06;5084706;28;20169;-64
2022/01/20 09:22:07;;;;;;;12.90;2.60;;;;;;;2.05;100.00;102850.66;5086544;28;20089;-63
2022/01/20 09:24:32;;;;;;;12.27;2.63;;;;;;;2.06;100.00;102849.88;5086059;28;20481;-64
2022/01/20 09:26:58;;;;;;;8.73;2.70;;;;;;;2.08;100.00;102850.94;5081711;28;20103;-64
2022/01/20 09:29:23;;;;;;;12.63;2.67;;;;;;;2.09;100.00;102854.38;5086249;28;20467;-64
2022/01/20 09:31:50;;;;;;;14.27;2.40;;;;;;;2.10;100.00;102846.91;5084383;28;20500;-64
2022/01/20 09:34:16;;;;;;;13.43;2.60;;;;;;;2.12;100.00;102842.81;5079894;28;20043;-64
2022/01/20 09:36:42;;;;;;;8.37;1.87;;;;;;;2.12;100.00;102849.59;5085762;28;20051;-64
2022/01/20 09:39:07;;;;;;;8.80;2.27;;;;;;;2.12;100.00;102844.47;5086009;28;20102;-64
2022/01/20 09:41:33;;;;;;;10.03;2.17;;;;;;;2.15;100.00;102835.47;5077718;28;20032;-63
2022/01/20 09:43:58;;;;;;;10.87;2.30;;;;;;;2.20;100.00;102837.53;5074897;28;20039;-63
2022/01/20 09:46:25;;;;;;;10.77;2.30;;;;;;;2.26;100.00;102836.50;5086023;28;20028;-64
2022/01/20 09:48:50;;;;;;;10.60;1.83;;;;;;;2.32;100.00;102838.75;5085481;28;20044;-64
2022/01/20 09:51:16;;;;;;;10.70;2.73;;;;;;;2.39;100.00;102841.16;5084085;28;20042;-64
2022/01/20 09:53:41;;;;;;;13.43;2.70;;;;;;;2.47;100.00;102841.00;5080040;28;20031;-64
2022/01/20 09:56:07;;;;;;;11.50;2.37;;;;;;;2.56;100.00;102849.59;5112904;28;20088;-64
2022/01/20 09:58:32;;;;;;;16.77;2.70;;;;;;;2.62;100.00;102870.69;5121864;27;20076;-64
2022/01/20 10:00:59;;;;;;;14.00;2.50;;;;;;;2.69;100.00;102876.38;5115061;27;20091;-64
2022/01/20 10:03:26;;;;;;;11.53;2.60;;;;;;;2.70;100.00;102880.75;5115274;27;20018;-65
2022/01/20 10:05:53;;;;;;;8.80;2.17;;;;;;;2.70;100.00;102891.00;5131188;27;20083;-63
2022/01/20 10:08:26;;;;;;;12.03;2.87;;;;;;;2.66;100.00;102897.47;5112675;28;20032;-64
2022/01/20 10:10:58;;;;;;;13.67;3.50;;;;;;;2.66;100.00;102896.56;5111888;28;20055;-63
2022/01/20 10:13:29;;;;;;;8.80;2.13;;;;;;;2.68;100.00;102895.06;5113019;27;20055;-64
2022/01/20 10:16:03;;;;;;;8.20;2.17;;;;;;;2.70;100.00;102894.44;5109563;27;20372;-64
2022/01/20 10:18:31;;;;;;;9.40;2.10;;;;;;;2.75;100.00;102902.59;5102731;28;20372;-65
2022/01/20 10:21:00;;;;;;;11.47;1.90;;;;;;;2.81;100.00;102892.94;5103914;28;20447;-64
2022/01/20 10:23:38;;;;;;;9.53;2.07;;;;;;;2.87;100.00;102903.78;5113009;28;20019;-64
2022/01/20 10:26:16;;;;;;;11.90;2.10;;;;;;;2.91;100.00;102910.09;5133063;27;20019;-63
2022/01/20 10:28:52;;;;;;;11.13;2.23;;;;;;;2.98;100.00;102909.94;5098137;28;20023;-64
2022/01/20 10:31:29;;;;;;;14.90;2.30;;;;;;;3.02;100.00;102911.13;5106619;28;20418;-64
2022/01/20 10:33:54;;;;;;;12.73;2.37;;;;;;;3.05;100.00;102908.88;5110108;27;20027;-64
2022/01/20 10:36:19;;;;;;;11.10;2.83;;;;;;;3.07;100.00;102912.47;5111523;28;20360;-65
2022/01/20 10:38:57;;;;;;;11.83;2.20;;;;;;;3.08;100.00;102911.72;5111929;28;20081;-64
2022/01/20 10:41:32;;;;;;;11.40;2.40;;;;;;;3.12;100.00;102921.50;5112465;28;20024;-64
2022/01/20 10:44:15;;;;;;;14.07;2.47;;;;;;;3.18;100.00;102926.31;5110746;27;20471;-64
2022/01/20 10:46:48;;;;;;;6.60;2.03;;;;;;;3.28;100.00;102927.19;5104310;28;20372;-64
2022/01/20 10:49:14;;;;;;;13.73;2.37;;;;;;;3.34;98.75;102940.59;5105338;28;20480;-64
2022/01/20 10:51:40;;;;;;;10.43;2.30;;;;;;;3.36;97.31;102929.72;5113218;27;20035;-64
2022/01/20 10:54:13;;;;;;;9.40;2.00;;;;;;;3.37;97.44;102930.63;5112168;28;20043;-64
2022/01/20 10:56:51;;;;;;;12.17;2.30;;;;;;;3.33;97.08;102929.44;5112204;28;20022;-64
2022/01/20 10:59:18;;;;;;;12.03;2.10;;;;;;;3.29;96.33;102922.19;5124129;27;20029;-64
2022/01/20 11:01:43;;;;;;;9.00;2.40;;;;;;;3.25;96.22;102922.69;5110947;28;20023;-64
2022/01/20 11:04:09;;;;;;;10.90;2.23;;;;;;;3.20;95.67;102917.09;5129054;27;20027;-65
2022/01/20 11:06:36;;;;;;;15.60;2.80;;;;;;;3.19;96.48;102917.88;5116950;27;20678;-64
2022/01/20 11:09:06;;;;;;;9.80;2.30;;;;;;;3.24;96.92;102928.56;5112756;28;20024;-63
2022/01/20 11:11:33;;;;;;;9.43;2.20;;;;;;;3.26;96.40;102924.47;5102369;28;20546;-64
2022/01/20 11:13:59;;;;;;;15.93;2.70;;;;;;;3.27;95.25;102925.41;5091856;28;20048;-64
2022/01/20 11:16:24;;;;;;;9.83;2.13;;;;;;;3.32;95.38;102934.41;5091148;28;20039;-64
2022/01/20 11:18:49;;;;;;;11.13;1.80;;;;;;;3.31;95.32;102937.75;5092389;28;20104;-65
2022/01/20 11:21:26;;;;;;;10.47;2.60;;;;;;;3.29;94.57;102935.00;5094778;28;20118;-64
2022/01/20 11:23:52;;;;;;;14.37;2.60;;;;;;;3.25;94.55;102927.81;5112591;28;20031;-64
2022/01/20 11:26:17;;;;;;;12.63;2.70;;;;;;;3.22;93.75;102922.41;5112380;28;20035;-63
2022/01/20 11:28:57;;;;;;;9.53;2.40;;;;;;;3.20;92.56;102931.59;5109867;28;20023;-64
2022/01/20 11:31:31;;;;;;;14.57;3.83;;;;;;;3.23;94.55;102924.19;5092040;28;20274;-64
2022/01/20 11:33:56;;;;;;;13.33;2.70;;;;;;;3.31;95.28;102915.56;5091796;28;20051;-64
2022/01/20 11:36:27;;;;;;;15.77;2.60;;;;;;;3.43;95.10;102914.94;5091975;28;20117;-64
2022/01/20 11:39:00;;;;;;;9.57;2.28;;;;;;;3.49;93.75;102915.50;5091691;28;20028;-64
2022/01/20 11:41:35;;;;;;;10.90;2.30;;;;;;;3.56;93.32;102915.31;5091710;28;20023;-64
2022/01/20 11:44:11;;;;;;;11.97;2.30;;;;;;;3.57;93.12;102909.44;5091704;28;20115;-64
2022/01/20 11:46:40;;;;;;;11.10;2.00;;;;;;;3.58;93.04;102918.94;5091628;28;20032;-64
2022/01/20 11:49:08;;;;;;;11.87;2.47;;;;;;;3.59;92.55;102914.72;5091428;28;20086;-64
2022/01/20 11:51:58;;;;;;;12.33;2.13;;;;;;;3.56;91.79;102902.50;5091919;28;20027;-64
2022/01/20 11:54:32;;;;;;;10.10;2.67;;;;;;;3.55;92.10;102905.84;5091880;28;20082;-64
2022/01/20 11:57:04;;;;;;;10.50;2.37;;;;;;;3.54;92.37;102913.38;5093432;28;20391;-64
2022/01/20 11:59:39;;;;;;;8.83;2.10;;;;;;;3.52;90.84;102908.13;5104162;28;20024;-64
2022/01/20 12:02:04;;;;;;;11.57;2.40;;;;;;;3.49;90.81;102910.38;5091483;28;20084;-64
2022/01/20 12:04:41;;;;;;;12.80;2.30;;;;;;;3.47;91.27;102925.63;5091490;28;20110;-64
2022/01/20 12:07:09;;;;;;;13.13;2.33;;;;;;;3.47;91.42;102917.91;5090951;28;20607;-64
2022/01/20 12:09:37;;;;;;;10.90;2.50;;;;;;;3.52;91.76;102913.25;5091191;28;20082;-64
2022/01/20 12:12:18;;;;;;;10.20;2.27;;;;;;;3.72;92.78;102902.28;5091610;28;20371;-65
2022/01/20 12:14:45;;;;;;;10.97;2.20;;;;;;;3.95;92.26;102900.06;5068949;28;20052;-64
2022/01/20 12:17:16;;;;;;;8.87;2.07;;;;;;;4.17;91.20;102884.06;5071378;28;20105;-64
2022/01/20 12:19:47;;;;;;;10.50;2.00;;;;;;;4.47;90.53;102882.47;5071085;28;20111;-64
2022/01/20 12:22:12;;;;;;;12.30;2.92;;;;;;;4.65;87.91;102890.00;5070789;28;20495;-64
2022/01/20 12:24:52;;;;;;;8.63;1.93;;;;;;;4.64;86.70;102886.53;5094210;28;20106;-64